Nearby METAR Reports

 

KAIK - Aiken, South Carolina, USA
Distance from station: NE 8mi, 13km
Updated: Sun, 25-Sep-2022 12:15 EDT
Clear
Clear
 Wind from SW
Wind: SW 17 km/h
Temperature: 79°F , 26°C
Dew Point: 63°F , 17°C
Humidity: 58%
Barometer: 29.97 inHg , 1014.9 hPa
Clouds: Clear
Visibility: 16 km
2022/09/25 16:15 KAIK 251615Z AUTO 22009KT 10SM CLR 26/17 A2997 RMK AO2 T02600167
KDNL - Augusta/Daniel, Georgia, USA
Distance from station: WSW 16mi, 26km
Updated: Sun, 25-Sep-2022 11:53 EDT
Clear
Clear
 Wind from WSW
Wind: WSW 15 km/h
Temperature: 79°F , 26°C
Dew Point: 61°F , 16°C
Humidity: 54%
Barometer: 29.98 inHg , 1015.2 hPa
Clouds: Clear
Visibility: 16 km
2022/09/25 15:53 KDNL 251553Z AUTO 24008KT 190V280 10SM CLR 26/16 A2998 RMK AO2 SLP147 T02610156
 
KAGS - Augusta/Bush, Georgia, USA
Distance from station: SW 18mi, 28km
Updated: Sun, 25-Sep-2022 11:53 EDT
Clear
Clear
 Wind from SSW
Wind: SSW 17 km/h
Temperature: 81°F , 27°C
Heat Index: 82°F , 28°C
Dew Point: 61°F , 16°C
Humidity: 51%
Barometer: 29.96 inHg , 1014.6 hPa
Clouds: Clear
Visibility: 16 km
2022/09/25 15:53 KAGS 251553Z 21009KT 10SM CLR 27/16 A2996 RMK AO2 SLP143 T02670156 $
KBNL - Barnwell, South Carolina, USA
Distance from station: SE 33mi, 52km
Updated: Sun, 25-Sep-2022 12:35 EDT
Clear
Clear
 Wind from SW
Wind: SW 13 km/h
Temperature: 82°F , 28°C
Heat Index: 82°F , 28°C
Dew Point: 61°F , 16°C
Humidity: 48%
Barometer: 29.96 inHg , 1014.6 hPa
Clouds: Clear
Visibility: 16 km
2022/09/25 16:35 KBNL 251635Z AUTO 23007KT 10SM CLR 28/16 A2996 RMK AO2
 
KXNO - North Af Auxfld, South Carolina, USA
Distance from station: E 41mi, 66km
Updated: Sun, 25-Sep-2022 11:55 EDT
Few Clouds
Few Clouds
 Wind from SW
Wind: SW 19 km/h
Temperature: 81°F , 27°C
Heat Index: 84°F , 29°C
Dew Point: 68°F , 20°C
Humidity: 66%
Barometer: 29.97 inHg , 1014.9 hPa
Clouds: Few Clouds
Visibility: 16 km
Cloud details: Few Clouds 18000 ft
2022/09/25 15:55 KXNO 251555Z AUTO 22010KT 10SM FEW180 27/20 A2997 RMK AO2 SLP149 T02650203 $
KHQU - Mcduffie/Thomson, Georgia, USA
Distance from station: W 42mi, 68km
Updated: Sun, 25-Sep-2022 12:15 EDT
Clear
Clear
 Wind from SW
Wind: SW 13 km/h
Temperature: 79°F , 26°C
Dew Point: 61°F , 16°C
Humidity: 54%
Barometer: 29.97 inHg , 1014.9 hPa
Clouds: Clear
Visibility: 16 km
2022/09/25 16:15 KHQU 251615Z AUTO 23007KT 10SM CLR 26/16 A2997 RMK AO2 T02650163
 
KCAE - Columbia, South Carolina, USA
Distance from station: ENE 46mi, 74km
Updated: Sun, 25-Sep-2022 11:56 EDT
Partly cloudy
Partly cloudy
 Wind from SW
Wind: SW 19 km/h
Temperature: 81°F , 27°C
Heat Index: 82°F , 28°C
Dew Point: 61°F , 16°C
Humidity: 51%
Barometer: 29.94 inHg , 1013.9 hPa
Clouds: Partly cloudy
Visibility: 16 km
Cloud details: Few Clouds 12000 ft
Partly cloudy 16000 ft
2022/09/25 15:56 KCAE 251556Z 23010KT 10SM FEW120 SCT160 27/16 A2994 RMK AO2 SLP137 T02720161
K2J5 - Millen, Georgia, USA
Distance from station: SSW 48mi, 77km
Updated: Sun, 25-Sep-2022 12:15 EDT
Clear
Clear
 Wind from SW
Wind: SW 13 km/h
Temperature: 82°F , 28°C
Heat Index: 82°F , 28°C
Dew Point: 61°F , 16°C
Humidity: 48%
Barometer: 29.98 inHg , 1015.2 hPa
Clouds: Clear
Visibility: 16 km
2022/09/25 16:15 K2J5 251615Z AUTO 22007KT 10SM CLR 28/16 A2998 RMK AO2 T02800160
 
KAQX - Allendale, South Carolina, USA
Distance from station: SE 50mi, 80km
Updated: Sun, 25-Sep-2022 12:15 EDT
Clear
Clear
 Wind from varies
Wind: varies 9 km/h
Temperature: 82°F , 28°C
Heat Index: 82°F , 28°C
Dew Point: 59°F , 15°C
Humidity: 45%
Barometer: 29.97 inHg , 1014.9 hPa
Clouds: Clear
Visibility: 16 km
2022/09/25 16:15 KAQX 251615Z AUTO VRB05KT 10SM CLR 28/15 A2997 RMK AO2